Maimiti — PBIJ — position and weather

sailwx.info

Track history (hours):
 
Tides and Currents Weather Stations Pressure Air Temp Water Temp Dewpoint Dewpoint Depression Visibility Wind Speed Wind Dir Waves Ship Positions

Maimiti

Last reported at 2014-Aug-23 19:33 UTC. Time now 2014-Aug-23 19:50 UTC.
Position N 52°28' E 004°38'.

Length 89 m; draft 3.2 m.

Type: Cargo ship. MMSI: 244312000.

Date/timePositionNaut miles runAvg speedWind from/ knotsBaromVisibWave heightAir tempDewpointWater temp
2014-Aug-23 19:33N 52°28' E 004°38'0 0.0
2014-Aug-23 03:33N 52°28' E 004°38'0 0.0
2014-Aug-23 02:33N 52°28' E 004°38'0 0.0
2014-Aug-23 01:33N 52°28' E 004°38'0 0.0
2014-Aug-23 00:33N 52°28' E 004°38'0 0.0
2014-Aug-22 23:33N 52°28' E 004°38'0 0.0
2014-Aug-22 22:33N 52°28' E 004°38'0 0.0
2014-Aug-22 21:33N 52°28' E 004°38'0 0.0
2014-Aug-22 20:33N 52°28' E 004°38'0 0.0
2014-Aug-22 19:33N 52°28' E 004°38'0 0.0
2014-Aug-22 18:33N 52°28' E 004°38'0 0.0
2014-Aug-22 17:33N 52°28' E 004°38'0 0.0
2014-Aug-22 16:33N 52°28' E 004°38'0 0.0
2014-Aug-22 15:33N 52°28' E 004°38'0 0.0
2014-Aug-22 14:33N 52°28' E 004°38'0 0.0
2014-Aug-22 13:33N 52°28' E 004°38'0 0.0
2014-Aug-22 12:33N 52°28' E 004°38'0 0.0
2014-Aug-22 11:33N 52°28' E 004°38'0 0.0
2014-Aug-22 10:33N 52°28' E 004°38'0 0.0
2014-Aug-22 09:33N 52°28' E 004°38'0 0.0
2014-Aug-22 08:33N 52°28' E 004°38'0 0.0
2014-Aug-22 07:33N 52°28' E 004°38'0 0.0
2014-Aug-22 06:33N 52°28' E 004°38'0 0.0
2014-Aug-22 05:33N 52°28' E 004°38'0 0.0
2014-Aug-22 04:33N 52°28' E 004°38'0 0.0
2014-Aug-22 03:33N 52°28' E 004°38'0 0.0
2014-Aug-22 02:33N 52°28' E 004°38'0 0.0
2014-Aug-22 01:33N 52°28' E 004°38'0 0.0
2014-Aug-22 00:33N 52°28' E 004°38'0 0.0
2014-Aug-21 23:33N 52°28' E 004°38'0 0.0
2014-Aug-21 22:33N 52°28' E 004°38'0 0.0
2014-Aug-21 21:33N 52°28' E 004°38'0 0.0
2014-Aug-21 20:33N 52°28' E 004°38'0 0.0
2014-Aug-21 19:33N 52°28' E 004°38'0 0.0
2014-Aug-21 18:33N 52°28' E 004°38'0 0.0
2014-Aug-21 17:33N 52°28' E 004°38'0 0.0
2014-Aug-21 16:33N 52°28' E 004°38'0 0.0
2014-Aug-21 15:33N 52°28' E 004°38'0 0.0
2014-Aug-21 14:33N 52°28' E 004°38'1 1.3
2014-Aug-21 13:33N 52°28' E 004°36'6 6.4
2014-Aug-21 12:34N 52°28' E 004°26'1510.9
2014-Aug-21 11:12N 52°26' E 004°01'1 1.2
2014-Aug-21 10:32N 52°26' E 004°00'0 0.0
2014-Aug-21 09:33N 52°26' E 004°00'0 0.0
2014-Aug-21 08:33N 52°26' E 004°00'0 0.0
2014-Aug-21 07:33N 52°26' E 004°00'0 0.1
2014-Aug-21 06:34N 52°26' E 004°00'0 0.0
2014-Aug-21 05:30N 52°26' E 004°00'0 0.0
2014-Aug-21 04:33N 52°26' E 004°00'0 0.1
2014-Aug-21 03:33N 52°26' E 004°00'0 0.0
2014-Aug-21 02:32N 52°26' E 004°00'0 0.0
2014-Aug-21 01:32N 52°26' E 004°00'0 0.0
2014-Aug-20 23:26N 52°26' E 004°00'0 0.0
2014-Aug-20 22:33N 52°26' E 004°00'0 0.1
2014-Aug-20 21:30N 52°26' E 004°00'0 0.1
2014-Aug-20 20:34N 52°26' E 004°00'0 0.0
2014-Aug-20 19:28N 52°26' E 004°00'0 0.0
2014-Aug-20 18:30N 52°26' E 004°00'0 0.0
2014-Aug-20 16:32N 52°26' E 004°00'45 4.5
2014-Aug-20 06:30N 51°48' E 003°22'35 3.5
2014-Aug-19 20:25N 51°37' E 002°27'1112.1
2014-Aug-19 19:33N 51°29' E 002°17'1312.0
2014-Aug-19 18:29N 51°18' E 002°07'1111.9
2014-Aug-19 17:34N 51°10' E 001°54'5510.8
2014-Aug-19 12:27N 50°29' E 000°55'1011.2
2014-Aug-19 11:33N 50°27' E 000°39'5710.6
2014-Aug-19 06:08N 50°30' W 000°50'1911.4
2014-Aug-19 04:26N 50°27' W 001°20'205 7.6
2014-Aug-18 01:33N 51°58' W 006°13'10 9.8
2014-Aug-18 00:29N 52°08' W 006°10'13511.2
2014-Aug-17 12:31N 54°20' W 005°24'1212.1
2014-Aug-17 11:33N 54°32' W 005°23'1212.5
2014-Aug-17 10:33N 54°43' W 005°32'1311.0
2014-Aug-17 09:25N 54°38' W 005°52'2 2.1
2014-Aug-17 08:25N 54°37' W 005°55'0 0.0
2014-Aug-17 07:19N 54°37' W 005°55'0 0.0
2014-Aug-17 06:31N 54°37' W 005°55'0 0.0
2014-Aug-17 05:31N 54°37' W 005°55'0 0.0
2014-Aug-17 04:31N 54°37' W 005°55'0 0.0
2014-Aug-17 03:28N 54°37' W 005°55'0 0.0
2014-Aug-17 02:31N 54°37' W 005°55'0 0.0
2014-Aug-17 01:31N 54°37' W 005°55'0 0.0
2014-Aug-17 00:25N 54°37' W 005°55'0 0.0
2014-Aug-16 23:13N 54°37' W 005°55'0 0.0
2014-Aug-16 22:25N 54°37' W 005°55'0 0.0
2014-Aug-16 21:31N 54°37' W 005°55'0 0.0
2014-Aug-16 20:28N 54°37' W 005°55'0 0.0
2014-Aug-16 19:25N 54°37' W 005°55'0 0.0
2014-Aug-16 18:10N 54°37' W 005°55'0 0.0
2014-Aug-16 10:30N 54°37' W 005°55'0 0.0
2014-Aug-16 08:12N 54°37' W 005°55'0 0.0
2014-Aug-16 06:12N 54°37' W 005°55'0 0.1
2014-Aug-15 23:08N 54°37' W 005°54'5 8.5
2014-Aug-15 22:33N 54°41' W 005°49'1010.3
2014-Aug-15 21:33N 54°43' W 005°32'9 8.9
2014-Aug-15 20:33N 54°36' W 005°22'1110.9
2014-Aug-15 19:33N 54°25' W 005°19'196 8.5
2014-Aug-14 20:27N 51°22' W 003°24'6 7.0
2014-Aug-14 19:32N 51°23' W 003°14'  
Track history (hours):
 
Tides and Currents Weather Stations Pressure Air Temp Water Temp Dewpoint Dewpoint Depression Visibility Wind Speed Wind Dir Waves Ship Positions

Maimiti

Last reported at 2014-Aug-23 19:33 UTC. Time now 2014-Aug-23 19:50 UTC.
Position N 52°28' E 004°38'.

Length 89 m; draft 3.2 m.

Type: Cargo ship. MMSI: 244312000.

Date/timePositionNaut miles runAvg speedWind from/ knotsBaromVisibWave heightAir tempDewpointWater temp
2014-Aug-23 19:33N 52°28' E 004°38'0 0.0
2014-Aug-23 03:33N 52°28' E 004°38'0 0.0
2014-Aug-23 02:33N 52°28' E 004°38'0 0.0
2014-Aug-23 01:33N 52°28' E 004°38'0 0.0
2014-Aug-23 00:33N 52°28' E 004°38'0 0.0
2014-Aug-22 23:33N 52°28' E 004°38'0 0.0
2014-Aug-22 22:33N 52°28' E 004°38'0 0.0
2014-Aug-22 21:33N 52°28' E 004°38'0 0.0
2014-Aug-22 20:33N 52°28' E 004°38'0 0.0
2014-Aug-22 19:33N 52°28' E 004°38'0 0.0
2014-Aug-22 18:33N 52°28' E 004°38'0 0.0
2014-Aug-22 17:33N 52°28' E 004°38'0 0.0
2014-Aug-22 16:33N 52°28' E 004°38'0 0.0
2014-Aug-22 15:33N 52°28' E 004°38'0 0.0
2014-Aug-22 14:33N 52°28' E 004°38'0 0.0
2014-Aug-22 13:33N 52°28' E 004°38'0 0.0
2014-Aug-22 12:33N 52°28' E 004°38'0 0.0
2014-Aug-22 11:33N 52°28' E 004°38'0 0.0
2014-Aug-22 10:33N 52°28' E 004°38'0 0.0
2014-Aug-22 09:33N 52°28' E 004°38'0 0.0
2014-Aug-22 08:33N 52°28' E 004°38'0 0.0
2014-Aug-22 07:33N 52°28' E 004°38'0 0.0
2014-Aug-22 06:33N 52°28' E 004°38'0 0.0
2014-Aug-22 05:33N 52°28' E 004°38'0 0.0
2014-Aug-22 04:33N 52°28' E 004°38'0 0.0
2014-Aug-22 03:33N 52°28' E 004°38'0 0.0
2014-Aug-22 02:33N 52°28' E 004°38'0 0.0
2014-Aug-22 01:33N 52°28' E 004°38'0 0.0
2014-Aug-22 00:33N 52°28' E 004°38'0 0.0
2014-Aug-21 23:33N 52°28' E 004°38'0 0.0
2014-Aug-21 22:33N 52°28' E 004°38'0 0.0
2014-Aug-21 21:33N 52°28' E 004°38'0 0.0
2014-Aug-21 20:33N 52°28' E 004°38'0 0.0
2014-Aug-21 19:33N 52°28' E 004°38'0 0.0
2014-Aug-21 18:33N 52°28' E 004°38'0 0.0
2014-Aug-21 17:33N 52°28' E 004°38'0 0.0
2014-Aug-21 16:33N 52°28' E 004°38'0 0.0
2014-Aug-21 15:33N 52°28' E 004°38'0 0.0
2014-Aug-21 14:33N 52°28' E 004°38'1 1.3
2014-Aug-21 13:33N 52°28' E 004°36'6 6.4
2014-Aug-21 12:34N 52°28' E 004°26'1510.9
2014-Aug-21 11:12N 52°26' E 004°01'1 1.2
2014-Aug-21 10:32N 52°26' E 004°00'0 0.0
2014-Aug-21 09:33N 52°26' E 004°00'0 0.0
2014-Aug-21 08:33N 52°26' E 004°00'0 0.0
2014-Aug-21 07:33N 52°26' E 004°00'0 0.1
2014-Aug-21 06:34N 52°26' E 004°00'0 0.0
2014-Aug-21 05:30N 52°26' E 004°00'0 0.0
2014-Aug-21 04:33N 52°26' E 004°00'0 0.1
2014-Aug-21 03:33N 52°26' E 004°00'0 0.0
2014-Aug-21 02:32N 52°26' E 004°00'0 0.0
2014-Aug-21 01:32N 52°26' E 004°00'0 0.0
2014-Aug-20 23:26N 52°26' E 004°00'0 0.0
2014-Aug-20 22:33N 52°26' E 004°00'0 0.1
2014-Aug-20 21:30N 52°26' E 004°00'0 0.1
2014-Aug-20 20:34N 52°26' E 004°00'0 0.0
2014-Aug-20 19:28N 52°26' E 004°00'0 0.0
2014-Aug-20 18:30N 52°26' E 004°00'0 0.0
2014-Aug-20 16:32N 52°26' E 004°00'45 4.5
2014-Aug-20 06:30N 51°48' E 003°22'35 3.5
2014-Aug-19 20:25N 51°37' E 002°27'1112.1
2014-Aug-19 19:33N 51°29' E 002°17'1312.0
2014-Aug-19 18:29N 51°18' E 002°07'1111.9
2014-Aug-19 17:34N 51°10' E 001°54'5510.8
2014-Aug-19 12:27N 50°29' E 000°55'1011.2
2014-Aug-19 11:33N 50°27' E 000°39'5710.6
2014-Aug-19 06:08N 50°30' W 000°50'1911.4
2014-Aug-19 04:26N 50°27' W 001°20'205 7.6
2014-Aug-18 01:33N 51°58' W 006°13'10 9.8
2014-Aug-18 00:29N 52°08' W 006°10'13511.2
2014-Aug-17 12:31N 54°20' W 005°24'1212.1
2014-Aug-17 11:33N 54°32' W 005°23'1212.5
2014-Aug-17 10:33N 54°43' W 005°32'1311.0
2014-Aug-17 09:25N 54°38' W 005°52'2 2.1
2014-Aug-17 08:25N 54°37' W 005°55'0 0.0
2014-Aug-17 07:19N 54°37' W 005°55'0 0.0
2014-Aug-17 06:31N 54°37' W 005°55'0 0.0
2014-Aug-17 05:31N 54°37' W 005°55'0 0.0
2014-Aug-17 04:31N 54°37' W 005°55'0 0.0
2014-Aug-17 03:28N 54°37' W 005°55'0 0.0
2014-Aug-17 02:31N 54°37' W 005°55'0 0.0
2014-Aug-17 01:31N 54°37' W 005°55'0 0.0
2014-Aug-17 00:25N 54°37' W 005°55'0 0.0
2014-Aug-16 23:13N 54°37' W 005°55'0 0.0
2014-Aug-16 22:25N 54°37' W 005°55'0 0.0
2014-Aug-16 21:31N 54°37' W 005°55'0 0.0
2014-Aug-16 20:28N 54°37' W 005°55'0 0.0
2014-Aug-16 19:25N 54°37' W 005°55'0 0.0
2014-Aug-16 18:10N 54°37' W 005°55'0 0.0
2014-Aug-16 10:30N 54°37' W 005°55'0 0.0
2014-Aug-16 08:12N 54°37' W 005°55'0 0.0
2014-Aug-16 06:12N 54°37' W 005°55'0 0.1
2014-Aug-15 23:08N 54°37' W 005°54'5 8.5
2014-Aug-15 22:33N 54°41' W 005°49'1010.3
2014-Aug-15 21:33N 54°43' W 005°32'9 8.9
2014-Aug-15 20:33N 54°36' W 005°22'1110.9
2014-Aug-15 19:33N 54°25' W 005°19'196 8.5
2014-Aug-14 20:27N 51°22' W 003°24'6 7.0
2014-Aug-14 19:32N 51°23' W 003°14'  

Dump ship's entire track history